Flight Number: EUR1419 Duration: 5:00
Departure: Cairo Int'll Airport (HECA) at 08:00 Distance: 1891 Nm
Arrival: Gatwick Airport (EGKK) at 13:00 Equipment: B757-200

Weather Information
Cairo Airport, Egypt (HECA) 30-08N 031-24E 74M Sep 21, 2017 - 10:00 AM EDT / 2017.09.21 1400 UTC
Wind: from the NNW (330 degrees) at 14 MPH (12 KT):0
Visibility: greater than 7 mile(s):0 Temperature: 96 F (36 C) Heat index: 95.9 F (35.5 C):1 Dew Point: 60 F (16 C) Relative Humidity: 30% Pressure (altimeter): 29.88 in. Hg (1012 hPa)
ob: HECA 211400Z 33012KT CAVOK 36/16 Q1012 NOSIG cycle: 14
Sunrise: 03:45 Sunset: 15:49 (UTC)

London / Gatwick Airport, United Kingdom (EGKK) 51-09N 000-11W 0M Sep 21, 2017 - 09:50 AM EDT / 2017.09.21 1350 UTC
Wind: from the SSW (200 degrees) at 10 MPH (9 KT) (direction variable):0
Visibility: greater than 7 mile(s):0
Sky conditions: mostly cloudy Temperature: 62 F (17 C) Dew Point: 53 F (12 C) Relative Humidity: 72% Pressure (altimeter): 29.94 in. Hg (1014 hPa)
ob: EGKK 211350Z 20009KT 150V230 9999 BKN021 BKN038 17/12 Q1014 cycle: 14
Sunrise: 05:50 Sunset: 17:57 (UTC)

TAF:2017/09/21 12:15 TAF EGKK 211056Z 2112/2218 20012KT 9999 SCT030 TEMPO 2113/2118 8000 -RA BKN012 PROB30 TEMPO 2114/2117 4000 RA BKN008 BECMG 2116/2119 28005KT BECMG 2122/2201 7000 TEMPO 2201/2208 3000 BR BCFG PROB40 2203/2208 0400 FG BKN001 BECMG 2208/2211 9999

Previous Pireps for this route
Date Aircraft Flight time Fuel used Landing rate On time
2012-08-18B7775.00820000No
2012-08-27B77704.4361634-679No
2012-09-08B77704.3656427-466No
2012-09-10B7774.30800000No
2013-10-04A32105.1418463-423Charter
2013-12-05B73705.2440782-364Charter
2014-01-20B757-20004.5732595-334No
2014-02-16B77704.4754139-282Yes
2014-04-13B757-20005.5239730-288No
2014-05-22B757-20004.4132526-130Yes
2014-07-19B757-20004.4143942-782Yes
2014-07-21B757-20004.2929935-165Yes
2014-08-07B77704.3452656-152Yes
2014-08-21B757-20004.5135056-241No
2014-09-19B757-20004.4131107-191Yes
2014-10-06B757-20004.2929747-430Yes
2014-10-14B7774.15882090Yes
2014-12-19B757-20004.5331409-185Yes
2015-02-18B757-2005.0242164-610No
2015-04-19B757-20004.5130532-161Yes
2015-05-04B757-20005.0442854-6Charter
2015-12-29B757-20004.3928400-188Yes
2016-02-13B77704.4062643-263Yes
2016-07-26B7774.252156500Yes
2016-08-29B77704.3971901-413Charter
2017-06-04B74700Charter
2017-06-04B74700Charter
2017-06-07B74704.16990760Charter
2017-06-11B74704.2010051150Charter
(pireps marked green are flown by you)

Route map